createdAt,value
2019-05-26T07:25:18.010Z,73.30
2019-05-26T07:27:47.466Z,73.60
2019-05-26T07:30:17.836Z,73.20
2019-05-26T07:32:47.145Z,73.10
2019-05-26T07:35:16.478Z,73.20
2019-05-26T07:37:45.783Z,72.90
2019-05-26T07:40:16.471Z,72.90
2019-05-26T07:42:45.820Z,72.20
2019-05-26T07:45:15.238Z,71.60
2019-05-26T07:47:44.709Z,71.80
2019-05-26T07:50:21.778Z,71.50
2019-05-26T07:52:52.237Z,70.90
2019-05-26T07:55:22.633Z,70.80
2019-05-26T07:57:51.950Z,70.40
2019-05-26T08:00:21.849Z,70.30
2019-05-26T08:02:51.221Z,70.70
2019-05-26T08:05:20.450Z,70.10
2019-05-26T08:07:49.776Z,69.70
2019-05-26T08:10:19.301Z,69.60
2019-05-26T08:12:48.561Z,68.30
2019-05-26T08:15:17.788Z,70.10
2019-05-26T08:17:47.061Z,69.10
2019-05-26T08:20:17.373Z,67.90
2019-05-26T08:22:46.595Z,68.80
2019-05-26T08:25:15.786Z,68.50
2019-05-26T08:27:44.998Z,68.00
2019-05-26T08:30:16.400Z,69.40
2019-05-26T08:32:45.811Z,67.50
2019-05-26T08:35:15.259Z,68.90
2019-05-26T08:37:44.572Z,67.30
2019-05-26T08:40:19.874Z,67.10
2019-05-26T08:42:50.235Z,66.80
2019-05-26T08:45:24.902Z,66.60
2019-05-26T08:47:54.187Z,67.40
2019-05-26T08:50:23.365Z,68.10
2019-05-26T08:52:52.629Z,69.90
2019-05-26T08:55:22.418Z,70.20
2019-05-26T08:57:51.676Z,68.90
2019-05-26T09:00:21.156Z,69.50
2019-05-26T09:02:50.522Z,69.50
2019-05-26T09:05:20.903Z,70.90
2019-05-26T09:07:50.516Z,69.90
2019-05-26T09:10:19.949Z,69.20
2019-05-26T09:13:00.161Z,69.10
2019-05-26T09:15:20.500Z,69.30
2019-05-26T09:17:49.810Z,68.70
2019-05-26T09:20:19.484Z,68.50
2019-05-26T09:22:48.845Z,67.90
2019-05-26T09:25:18.874Z,68.00
2019-05-26T09:27:48.175Z,67.90
2019-05-26T09:30:18.589Z,67.60
2019-05-26T09:32:47.776Z,67.30
2019-05-26T09:35:23.684Z,66.30
2019-05-26T09:38:02.255Z,65.80
2019-05-26T09:40:31.545Z,65.60
2019-05-26T09:43:15.007Z,65.00
2019-05-26T09:45:39.878Z,63.90
2019-05-26T09:48:09.063Z,65.10
2019-05-26T09:50:38.271Z,64.40
2019-05-26T09:53:08.518Z,66.50
2019-05-26T09:55:57.814Z,64.20
2019-05-26T09:58:32.757Z,62.70
2019-05-26T10:01:01.970Z,63.80
2019-05-26T10:03:31.210Z,63.50
2019-05-26T10:06:00.482Z,63.90
2019-05-26T10:11:08.228Z,62.60
2019-05-26T10:13:37.371Z,63.00
2019-05-26T10:21:31.047Z,60.70
2019-05-26T10:26:43.498Z,61.10
2019-05-26T10:42:14.025Z,60.90
2019-05-26T10:44:45.702Z,60.90
2019-05-26T10:47:21.641Z,60.90
2019-05-26T10:57:42.794Z,60.60
2019-05-26T11:02:48.926Z,60.40
2019-05-26T11:08:08.238Z,59.20
2019-05-26T11:10:37.533Z,60.20
2019-05-26T11:13:06.822Z,59.50
2019-05-26T11:15:45.736Z,59.10
2019-05-26T11:18:15.784Z,58.70
2019-05-26T11:20:45.999Z,58.90
2019-05-26T11:23:15.262Z,59.30
2019-05-26T11:25:44.738Z,59.10
2019-05-26T11:28:14.087Z,59.10
2019-05-26T11:33:18.063Z,59.40
2019-05-26T11:38:26.890Z,58.00
2019-05-26T11:40:58.843Z,57.90
2019-05-26T11:43:29.006Z,59.30
2019-05-26T11:45:58.336Z,58.70
2019-05-26T11:48:27.509Z,57.90
2019-05-26T11:53:31.215Z,58.60
2019-05-26T11:56:04.964Z,57.20
2019-05-26T11:58:34.194Z,58.10
2019-05-26T12:01:10.307Z,60.80
2019-05-26T12:03:39.563Z,59.20
2019-05-26T12:08:47.714Z,57.30
2019-05-26T12:11:17.143Z,57.20
2019-05-26T12:13:46.713Z,58.70
2019-05-26T12:16:16.096Z,57.80
2019-05-26T12:18:46.531Z,58.60
2019-05-26T12:21:15.862Z,58.50
2019-05-26T12:23:45.533Z,57.20
2019-05-26T12:29:35.348Z,58.50
2019-05-26T12:34:45.460Z,56.80
2019-05-26T12:37:14.803Z,58.20
2019-05-26T12:39:44.949Z,56.90
2019-05-26T12:42:17.029Z,56.80
2019-05-26T12:44:49.437Z,57.50
2019-05-26T12:47:16.626Z,57.40
2019-05-26T12:49:45.878Z,58.70
2019-05-26T12:52:15.201Z,57.00
2019-05-26T12:54:44.527Z,57.60
2019-05-26T12:57:13.911Z,57.80
2019-05-26T12:59:43.198Z,57.40
2019-05-26T13:02:19.637Z,60.20
2019-05-26T13:05:01.127Z,57.90
2019-05-26T13:10:08.724Z,58.90
2019-05-26T13:12:44.009Z,60.00
2019-05-26T13:15:14.665Z,60.60
2019-05-26T13:20:32.068Z,58.50
2019-05-26T13:25:37.279Z,60.20
2019-05-26T13:30:44.782Z,62.90
2019-05-26T13:33:16.679Z,63.40
2019-05-26T13:35:45.907Z,63.40
2019-05-26T13:38:18.488Z,62.40
2019-05-26T13:40:47.911Z,61.20
2019-05-26T13:43:17.410Z,61.60
2019-05-26T13:45:46.940Z,60.90
2019-05-26T13:48:16.446Z,60.90
2019-05-26T13:50:45.903Z,60.90
2019-05-26T13:55:50.721Z,61.20
2019-05-26T14:00:56.504Z,62.80
2019-05-26T14:03:26.008Z,61.60
2019-05-26T14:05:55.521Z,60.90
2019-05-26T14:08:24.992Z,61.00
2019-05-26T14:10:54.435Z,60.70
2019-05-26T14:13:24.450Z,63.30
2019-05-26T14:15:55.682Z,62.70
2019-05-26T14:18:30.719Z,63.20
2019-05-26T14:21:00.172Z,62.00
2019-05-26T14:23:29.938Z,63.40
2019-05-26T14:31:10.246Z,61.20
2019-05-26T14:33:39.761Z,61.50
2019-05-26T14:36:09.125Z,62.20
2019-05-26T14:38:43.038Z,61.90
2019-05-26T14:41:09.511Z,61.20
2019-05-26T14:46:15.523Z,62.50
2019-05-26T14:51:32.591Z,61.80
2019-05-26T14:59:15.311Z,62.40
2019-05-26T15:01:44.687Z,62.70
2019-05-26T15:04:14.065Z,62.40
2019-05-26T15:06:43.591Z,62.50
2019-05-26T15:09:24.772Z,64.30
2019-05-26T15:11:43.965Z,63.60
2019-05-26T15:14:16.281Z,62.60
2019-05-26T15:16:45.682Z,62.70
2019-05-26T15:27:00.609Z,64.00
2019-05-26T15:32:05.669Z,63.80
2019-05-26T15:34:35.070Z,64.90
2019-05-26T15:37:04.359Z,64.20
2019-05-26T15:42:08.814Z,64.60
2019-05-26T15:44:38.142Z,65.50
2019-05-26T15:47:07.945Z,63.90
2019-05-26T15:49:38.061Z,64.10
2019-05-26T15:52:07.670Z,65.00
2019-05-26T15:54:37.222Z,64.40
2019-05-26T15:57:06.729Z,65.30
2019-05-26T15:59:36.235Z,65.40
2019-05-26T16:02:05.658Z,65.10
2019-05-26T16:04:35.290Z,66.30
2019-05-26T16:07:05.168Z,69.40
2019-05-26T16:12:10.070Z,72.70
2019-05-26T16:14:45.986Z,72.50
2019-05-26T16:17:15.387Z,71.30
2019-05-26T16:22:19.905Z,73.90
2019-05-26T16:27:24.453Z,72.10
2019-05-26T16:29:53.931Z,76.10
2019-05-26T16:32:23.435Z,76.50
2019-05-26T16:40:03.181Z,77.80
2019-05-26T16:42:32.614Z,81.30
2019-05-26T16:45:02.026Z,80.60
2019-05-26T16:47:31.250Z,77.90
2019-05-26T16:52:49.843Z,78.50
2019-05-26T16:55:19.142Z,82.40
2019-05-26T16:57:48.350Z,80.30
2019-05-26T17:00:18.871Z,79.10
2019-05-26T17:02:48.566Z,78.90
2019-05-26T17:05:18.122Z,83.40
2019-05-26T17:07:50.379Z,87.40
2019-05-26T17:12:53.053Z,82.80
2019-05-26T17:17:57.811Z,82.80
2019-05-26T17:20:41.046Z,82.80
2019-05-26T17:23:10.254Z,83.50
2019-05-26T17:25:44.499Z,83.60
2019-05-26T17:28:15.913Z,84.70
2019-05-26T17:33:23.757Z,86.40
2019-05-26T17:35:53.124Z,85.40
2019-05-26T17:38:22.528Z,84.00
2019-05-26T17:43:27.172Z,82.60
2019-05-26T17:45:59.622Z,81.40
2019-05-26T17:48:29.007Z,82.80
2019-05-26T17:51:03.158Z,83.70
2019-05-26T17:53:32.487Z,84.00
2019-05-26T17:58:41.297Z,82.10
2019-05-26T18:03:47.683Z,82.50
2019-05-26T18:08:57.836Z,81.20
2019-05-26T18:14:01.621Z,80.90
2019-05-26T18:19:12.174Z,80.50
2019-05-26T18:24:16.975Z,81.00
2019-05-26T18:29:24.942Z,80.70
2019-05-26T18:31:54.434Z,81.30
2019-05-26T18:34:33.339Z,82.50
2019-05-26T18:37:07.726Z,80.70
2019-05-26T18:39:36.995Z,80.00
2019-05-26T18:42:15.709Z,80.70
2019-05-26T18:44:45.018Z,81.60
2019-05-26T18:49:50.212Z,79.90
2019-05-26T18:52:20.824Z,80.40
2019-05-26T18:54:50.220Z,81.50
2019-05-26T18:57:19.505Z,79.90
2019-05-26T18:59:55.123Z,79.70
2019-05-26T19:04:59.348Z,80.60
2019-05-26T19:07:28.824Z,83.00
2019-05-26T19:10:03.947Z,80.90
2019-05-26T19:15:09.455Z,80.40
2019-05-26T19:20:16.755Z,81.10
2019-05-26T19:22:44.746Z,83.40
2019-05-26T19:25:14.440Z,81.10
2019-05-26T19:27:43.947Z,81.90
2019-05-26T19:30:13.913Z,80.90
2019-05-26T19:32:43.270Z,80.50
2019-05-26T19:35:23.047Z,80.60
2019-05-26T19:40:30.798Z,80.30
2019-05-26T19:43:00.630Z,80.00
2019-05-26T19:45:30.179Z,81.70
2019-05-26T19:50:42.699Z,81.00
2019-05-26T19:53:16.824Z,81.60
2019-05-26T19:55:51.198Z,81.60
2019-05-26T20:01:00.184Z,84.50
2019-05-26T20:03:32.473Z,83.60
2019-05-26T20:06:01.875Z,82.30
2019-05-26T20:11:08.488Z,81.90
2019-05-26T20:13:37.768Z,81.10
2019-05-26T20:16:07.466Z,83.10
2019-05-26T20:18:36.907Z,82.20
2019-05-26T20:28:53.475Z,82.50
2019-05-26T20:31:22.946Z,85.90
2019-05-26T20:33:52.583Z,84.80
2019-05-26T20:36:28.644Z,85.30
2019-05-26T20:38:58.092Z,83.50
2019-05-26T20:44:02.449Z,86.80
2019-05-26T20:46:33.396Z,86.40
2019-05-26T20:49:02.940Z,83.80
2019-05-26T20:51:32.572Z,84.20
2019-05-26T20:54:02.049Z,83.50
2019-05-26T20:59:07.994Z,82.70
2019-05-26T21:01:37.477Z,83.70
2019-05-26T21:04:06.799Z,83.90
2019-05-26T21:06:42.389Z,85.10
2019-05-26T21:09:11.831Z,85.50
2019-05-26T21:14:16.542Z,87.40
2019-05-26T21:19:21.485Z,83.50
2019-05-26T21:29:36.511Z,87.10
2019-05-26T21:32:17.108Z,84.70
2019-05-26T21:34:46.376Z,86.90
2019-05-26T21:37:24.055Z,88.40
2019-05-26T21:39:53.291Z,85.80
2019-05-26T21:42:27.955Z,85.80
2019-05-26T21:44:57.110Z,86.30
2019-05-26T21:50:05.772Z,86.70
2019-05-26T21:52:36.153Z,84.80
2019-05-26T21:55:06.036Z,86.60
2019-05-26T22:00:18.680Z,89.10
2019-05-26T22:05:24.300Z,89.60
2019-05-26T22:10:36.173Z,89.40
2019-05-26T22:15:40.176Z,91.30
2019-05-26T22:20:44.755Z,92.80
2019-05-26T22:25:48.316Z,93.00
2019-05-26T22:28:18.639Z,92.70
2019-05-26T22:30:47.963Z,89.90
2019-05-26T22:33:18.285Z,88.80
2019-05-26T22:35:47.551Z,88.00
2019-05-26T22:40:52.026Z,89.60
2019-05-26T22:45:56.241Z,92.00
2019-05-26T22:48:28.162Z,91.10
2019-05-26T22:50:57.478Z,93.40
2019-05-26T22:56:05.590Z,94.80
2019-05-26T22:58:35.003Z,92.40
2019-05-26T23:01:04.441Z,95.30
2019-05-26T23:03:35.081Z,90.40
2019-05-26T23:06:04.489Z,88.90
2019-05-26T23:08:40.088Z,91.70
2019-05-26T23:11:09.639Z,90.60
2019-05-26T23:13:44.016Z,89.50
2019-05-26T23:16:13.520Z,93.30
2019-05-26T23:18:42.848Z,92.60
2019-05-26T23:21:12.177Z,91.20
2019-05-26T23:26:16.858Z,91.00
2019-05-26T23:31:21.600Z,94.50
2019-05-26T23:33:51.324Z,91.20
2019-05-26T23:36:20.588Z,95.10
2019-05-26T23:38:50.051Z,92.80
2019-05-26T23:41:19.290Z,91.70
2019-05-26T23:43:48.726Z,91.80
2019-05-26T23:46:18.174Z,96.50
2019-05-26T23:48:47.494Z,92.40
2019-05-26T23:51:16.951Z,92.60
2019-05-26T23:53:46.373Z,92.20
2019-05-26T23:56:15.716Z,95.10
2019-05-26T23:58:50.858Z,92.50
